<?xml version="1.0" encoding="UTF-8" standalone="no" ?><gpx xmlns="http://www.topografix.com/GPX/1/1" xmlns:gpxx="http://www.garmin.com/xmlschemas/GpxExtensions/v3" xmlns:gpxtrkx="http://www.garmin.com/xmlschemas/TrackStatsExtension/v1" xmlns:wptx1="http://www.garmin.com/xmlschemas/WaypointExtension/v1" xmlns:gpxtpx="http://www.garmin.com/xmlschemas/TrackPointExtension/v1" creator="Oregon 700" version="1.1" xmlns:xsi="http://www.w3.org/2001/XMLSchema-instance" xsi:schemaLocation="http://www.topografix.com/GPX/1/1 http://www.topografix.com/GPX/1/1/gpx.xsd http://www.garmin.com/xmlschemas/GpxExtensions/v3 http://www8.garmin.com/xmlschemas/GpxExtensionsv3.xsd http://www.garmin.com/xmlschemas/TrackStatsExtension/v1 http://www8.garmin.com/xmlschemas/TrackStatsExtension.xsd http://www.garmin.com/xmlschemas/WaypointExtension/v1 http://www8.garmin.com/xmlschemas/WaypointExtensionv1.xsd http://www.garmin.com/xmlschemas/TrackPointExtension/v1 http://www.garmin.com/xmlschemas/TrackPointExtensionv1.xsd"><metadata><link href="http://www.garmin.com"><text>Garmin International</text></link><time>2023-07-12T15:02:25Z</time></metadata><trk><name>Current Track: 12 JUL 2023 10:14</name><extensions><gpxx:TrackExtension><gpxx:DisplayColor>Cyan</gpxx:DisplayColor></gpxx:TrackExtension><gpxtrkx:TrackStatsExtension><gpxtrkx:Distance>4098.000</gpxtrkx:Distance><gpxtrkx:TimerTime>7866</gpxtrkx:TimerTime><gpxtrkx:TotalElapsedTime>20873</gpxtrkx:TotalElapsedTime><gpxtrkx:MovingTime>5881</gpxtrkx:MovingTime><gpxtrkx:StoppedTime>1985</gpxtrkx:StoppedTime><gpxtrkx:MovingSpeed>0.697</gpxtrkx:MovingSpeed><gpxtrkx:MaxSpeed>2.143</gpxtrkx:MaxSpeed><gpxtrkx:MaxElevation>57.159</gpxtrkx:MaxElevation><gpxtrkx:MinElevation>39.204</gpxtrkx:MinElevation><gpxtrkx:Ascent>51.000</gpxtrkx:Ascent><gpxtrkx:Descent>50.895</gpxtrkx:Descent><gpxtrkx:AvgAscentRate>0.021</gpxtrkx:AvgAscentRate><gpxtrkx:MaxAscentRate>0.121</gpxtrkx:MaxAscentRate><gpxtrkx:AvgDescentRate>0.019</gpxtrkx:AvgDescentRate><gpxtrkx:MaxDescentRate>-0.159</gpxtrkx:MaxDescentRate><gpxtrkx:Calories>198</gpxtrkx:Calories></gpxtrkx:TrackStatsExtension></extensions><trkseg><trkpt lat="51.9519889634" lon="-1.9721625745"><ele>55.75</ele><time>2023-07-12T09:14:33Z</time></trkpt><trkpt lat="51.9519912265" lon="-1.9721845351"><ele>55.93</ele><time>2023-07-12T09:15:01Z</time></trkpt><trkpt lat="51.9519875385" lon="-1.9722290430"><ele>55.71</ele><time>2023-07-12T09:15:19Z</time></trkpt><trkpt lat="51.9520343933" lon="-1.9723214116"><ele>55.36</ele><time>2023-07-12T09:15:46Z</time></trkpt><trkpt lat="51.9520566892" lon="-1.9723565318"><ele>55.36</ele><time>2023-07-12T09:15:50Z</time></trkpt><trkpt lat="51.9520826731" lon="-1.9723841082"><ele>55.36</ele><time>2023-07-12T09:15:54Z</time></trkpt><trkpt lat="51.9520765543" lon="-1.9724878762"><ele>55.36</ele><time>2023-07-12T09:16:06Z</time></trkpt><trkpt lat="51.9520404283" lon="-1.9724768121"><ele>55.36</ele><time>2023-07-12T09:16:12Z</time></trkpt><trkpt lat="51.9519487303" lon="-1.9724080805"><ele>55.28</ele><time>2023-07-12T09:16:22Z</time></trkpt><trkpt lat="51.9518271089" lon="-1.9723202381"><ele>54.59</ele><time>2023-07-12T09:16:37Z</time></trkpt><trkpt lat="51.9517191499" lon="-1.9721802603"><ele>54.33</ele><time>2023-07-12T09:16:55Z</time></trkpt><trkpt lat="51.9516427908" lon="-1.9719940145"><ele>53.62</ele><time>2023-07-12T09:17:13Z</time></trkpt><trkpt lat="51.9516779110" lon="-1.9718086906"><ele>53.43</ele><time>2023-07-12T09:17:26Z</time></trkpt><trkpt lat="51.9517244305" lon="-1.9716568943"><ele>53.37</ele><time>2023-07-12T09:17:40Z</time></trkpt><trkpt lat="51.9517717883" lon="-1.9715425652"><ele>53.26</ele><time>2023-07-12T09:17:54Z</time></trkpt><trkpt lat="51.9518312998" lon="-1.9714354444"><ele>53.07</ele><time>2023-07-12T09:18:13Z</time></trkpt><trkpt lat="51.9518628996" lon="-1.9713273179"><ele>52.84</ele><time>2023-07-12T09:18:25Z</time></trkpt><trkpt lat="51.9518969301" lon="-1.9712250587"><ele>52.78</ele><time>2023-07-12T09:18:47Z</time></trkpt><trkpt lat="51.9519491494" lon="-1.9710735139"><ele>52.58</ele><time>2023-07-12T09:19:02Z</time></trkpt><trkpt lat="51.9519995246" lon="-1.9709112402"><ele>52.41</ele><time>2023-07-12T09:19:19Z</time></trkpt><trkpt lat="51.9520235807" lon="-1.9707853440"><ele>52.24</ele><time>2023-07-12T09:19:33Z</time></trkpt><trkpt lat="51.9520530012" lon="-1.9706534129"><ele>51.99</ele><time>2023-07-12T09:19:49Z</time></trkpt><trkpt lat="51.9520489778" lon="-1.9704530016"><ele>51.72</ele><time>2023-07-12T09:20:08Z</time></trkpt><trkpt lat="51.9520742074" lon="-1.9702829327"><ele>51.47</ele><time>2023-07-12T09:20:23Z</time></trkpt><trkpt lat="51.9521060586" lon="-1.9701270293"><ele>51.30</ele><time>2023-07-12T09:20:35Z</time></trkpt><trkpt lat="51.9521463756" lon="-1.9699404482"><ele>51.10</ele><time>2023-07-12T09:20:49Z</time></trkpt><trkpt lat="51.9521987624" lon="-1.9697223511"><ele>50.85</ele><time>2023-07-12T09:21:09Z</time></trkpt><trkpt lat="51.9522472098" lon="-1.9695418887"><ele>50.47</ele><time>2023-07-12T09:21:25Z</time></trkpt><trkpt lat="51.9522614591" lon="-1.9692975562"><ele>50.41</ele><time>2023-07-12T09:21:42Z</time></trkpt><trkpt lat="51.9522821624" lon="-1.9691401441"><ele>50.23</ele><time>2023-07-12T09:21:53Z</time></trkpt><trkpt lat="51.9522902090" lon="-1.9691024255"><ele>50.32</ele><time>2023-07-12T09:21:55Z</time></trkpt><trkpt lat="51.9523389917" lon="-1.9689331949"><ele>50.06</ele><time>2023-07-12T09:22:09Z</time></trkpt><trkpt lat="51.9523524866" lon="-1.9687200431"><ele>50.09</ele><time>2023-07-12T09:22:25Z</time></trkpt><trkpt lat="51.9523434341" lon="-1.9685431849"><ele>50.27</ele><time>2023-07-12T09:22:41Z</time></trkpt><trkpt lat="51.9523207191" lon="-1.9683152810"><ele>49.45</ele><time>2023-07-12T09:22:58Z</time></trkpt><trkpt lat="51.9523207191" lon="-1.9681508280"><ele>49.05</ele><time>2023-07-12T09:23:11Z</time></trkpt><trkpt lat="51.9523275085" lon="-1.9679287076"><ele>48.87</ele><time>2023-07-12T09:23:27Z</time></trkpt><trkpt lat="51.9523116667" lon="-1.9677327387"><ele>47.95</ele><time>2023-07-12T09:23:43Z</time></trkpt><trkpt lat="51.9523137622" lon="-1.9674978778"><ele>47.68</ele><time>2023-07-12T09:23:57Z</time></trkpt><trkpt lat="51.9523021113" lon="-1.9673712272"><ele>47.31</ele><time>2023-07-12T09:24:11Z</time></trkpt><trkpt lat="51.9522593636" lon="-1.9672743324"><ele>46.75</ele><time>2023-07-12T09:24:31Z</time></trkpt><trkpt lat="51.9523932226" lon="-1.9669705722"><ele>46.55</ele><time>2023-07-12T09:24:52Z</time></trkpt><trkpt lat="51.9524459448" lon="-1.9668109808"><ele>45.75</ele><time>2023-07-12T09:25:13Z</time></trkpt><trkpt lat="51.9523089007" lon="-1.9667059556"><ele>44.71</ele><time>2023-07-12T09:25:32Z</time></trkpt><trkpt lat="51.9521643128" lon="-1.9666349608"><ele>42.96</ele><time>2023-07-12T09:25:53Z</time></trkpt><trkpt lat="51.9520502351" lon="-1.9666083902"><ele>41.84</ele><time>2023-07-12T09:26:13Z</time></trkpt><trkpt lat="51.9519507419" lon="-1.9665673189"><ele>41.16</ele><time>2023-07-12T09:26:34Z</time></trkpt><trkpt lat="51.9518475607" lon="-1.9664788898"><ele>41.03</ele><time>2023-07-12T09:26:51Z</time></trkpt><trkpt lat="51.9517107680" lon="-1.9664430153"><ele>40.93</ele><time>2023-07-12T09:27:08Z</time></trkpt><trkpt lat="51.9516077545" lon="-1.9664114993"><ele>41.20</ele><time>2023-07-12T09:27:21Z</time></trkpt><trkpt lat="51.9514500070" lon="-1.9663213100"><ele>41.20</ele><time>2023-07-12T09:27:41Z</time></trkpt><trkpt lat="51.9513248652" lon="-1.9663198013"><ele>41.20</ele><time>2023-07-12T09:27:56Z</time></trkpt><trkpt lat="51.9511485100" lon="-1.9662276842"><ele>43.91</ele><time>2023-07-12T09:28:17Z</time></trkpt><trkpt lat="51.9511072710" lon="-1.9661856070"><ele>44.16</ele><time>2023-07-12T09:28:36Z</time></trkpt><trkpt lat="51.9509537984" lon="-1.9661002792"><ele>45.16</ele><time>2023-07-12T09:28:56Z</time></trkpt><trkpt lat="51.9509218633" lon="-1.9660209864"><ele>45.72</ele><time>2023-07-12T09:29:12Z</time></trkpt><trkpt lat="51.9509057701" lon="-1.9659891352"><ele>45.70</ele><time>2023-07-12T09:29:29Z</time></trkpt><trkpt lat="51.9508565683" lon="-1.9659152906"><ele>46.39</ele><time>2023-07-12T09:29:50Z</time></trkpt><trkpt lat="51.9507730845" lon="-1.9658184797"><ele>46.80</ele><time>2023-07-12T09:30:05Z</time></trkpt><trkpt lat="51.9506864157" lon="-1.9657802582"><ele>47.54</ele><time>2023-07-12T09:30:23Z</time></trkpt><trkpt lat="51.9505877607" lon="-1.9657120295"><ele>47.84</ele><time>2023-07-12T09:30:40Z</time></trkpt><trkpt lat="51.9503767043" lon="-1.9656333234"><ele>48.46</ele><time>2023-07-12T09:31:03Z</time></trkpt><trkpt lat="51.9501977507" lon="-1.9655902404"><ele>48.57</ele><time>2023-07-12T09:31:25Z</time></trkpt><trkpt lat="51.9500747882" lon="-1.9655285496"><ele>48.93</ele><time>2023-07-12T09:31:41Z</time></trkpt><trkpt lat="51.9500291068" lon="-1.9655274600"><ele>48.92</ele><time>2023-07-12T09:31:58Z</time></trkpt><trkpt lat="51.9500152767" lon="-1.9654963631"><ele>49.09</ele><time>2023-07-12T09:32:16Z</time></trkpt><trkpt lat="51.9499726128" lon="-1.9654585607"><ele>48.94</ele><time>2023-07-12T09:32:37Z</time></trkpt><trkpt lat="51.9498308748" lon="-1.9654532801"><ele>48.83</ele><time>2023-07-12T09:32:55Z</time></trkpt><trkpt lat="51.9497655798" lon="-1.9653478358"><ele>48.89</ele><time>2023-07-12T09:33:09Z</time></trkpt><trkpt lat="51.9497269392" lon="-1.9651951175"><ele>48.82</ele><time>2023-07-12T09:33:22Z</time></trkpt><trkpt lat="51.9497023802" lon="-1.9650826324"><ele>48.82</ele><time>2023-07-12T09:33:30Z</time></trkpt><trkpt lat="51.9496765640" lon="-1.9648850709"><ele>48.47</ele><time>2023-07-12T09:33:45Z</time></trkpt><trkpt lat="51.9496341515" lon="-1.9647486974"><ele>48.28</ele><time>2023-07-12T09:33:58Z</time></trkpt><trkpt lat="51.9495728798" lon="-1.9646050315"><ele>47.98</ele><time>2023-07-12T09:34:11Z</time></trkpt><trkpt lat="51.9495039806" lon="-1.9644610304"><ele>47.82</ele><time>2023-07-12T09:34:26Z</time></trkpt><trkpt lat="51.9494458102" lon="-1.9643098209"><ele>47.46</ele><time>2023-07-12T09:34:40Z</time></trkpt><trkpt lat="51.9493899029" lon="-1.9641423505"><ele>46.82</ele><time>2023-07-12T09:34:53Z</time></trkpt><trkpt lat="51.9493862987" lon="-1.9641289394"><ele>46.79</ele><time>2023-07-12T09:34:54Z</time></trkpt><trkpt lat="51.9493585546" lon="-1.9640390016"><ele>46.50</ele><time>2023-07-12T09:35:01Z</time></trkpt><trkpt lat="51.9493168127" lon="-1.9639143627"><ele>46.33</ele><time>2023-07-12T09:35:15Z</time></trkpt><trkpt lat="51.9492696226" lon="-1.9637598004"><ele>45.43</ele><time>2023-07-12T09:35:29Z</time></trkpt><trkpt lat="51.9492283836" lon="-1.9636098482"><ele>44.50</ele><time>2023-07-12T09:35:43Z</time></trkpt><trkpt lat="51.9491952751" lon="-1.9635050744"><ele>44.10</ele><time>2023-07-12T09:35:55Z</time></trkpt><trkpt lat="51.9491708837" lon="-1.9633422978"><ele>43.35</ele><time>2023-07-12T09:36:09Z</time></trkpt><trkpt lat="51.9491384458" lon="-1.9631987996"><ele>42.77</ele><time>2023-07-12T09:36:24Z</time></trkpt><trkpt lat="51.9491060078" lon="-1.9630279765"><ele>42.09</ele><time>2023-07-12T09:36:40Z</time></trkpt><trkpt lat="51.9490633439" lon="-1.9628809579"><ele>42.07</ele><time>2023-07-12T09:36:52Z</time></trkpt><trkpt lat="51.9489997253" lon="-1.9627132360"><ele>41.32</ele><time>2023-07-12T09:37:08Z</time></trkpt><trkpt lat="51.9489973783" lon="-1.9625813887"><ele>41.94</ele><time>2023-07-12T09:37:26Z</time></trkpt><trkpt lat="51.9489719812" lon="-1.9624931272"><ele>41.19</ele><time>2023-07-12T09:37:48Z</time></trkpt><trkpt lat="51.9489427283" lon="-1.9623430911"><ele>41.61</ele><time>2023-07-12T09:38:05Z</time></trkpt><trkpt lat="51.9489318319" lon="-1.9623147603"><ele>41.74</ele><time>2023-07-12T09:38:23Z</time></trkpt><trkpt lat="51.9489345979" lon="-1.9623214658"><ele>41.82</ele><time>2023-07-12T09:39:07Z</time></trkpt><trkpt lat="51.9489180855" lon="-1.9623175263"><ele>41.82</ele><time>2023-07-12T09:39:27Z</time></trkpt><trkpt lat="51.9489174988" lon="-1.9622762874"><ele>41.82</ele><time>2023-07-12T09:39:47Z</time></trkpt><trkpt lat="51.9489199296" lon="-1.9622119982"><ele>41.82</ele><time>2023-07-12T09:40:09Z</time></trkpt><trkpt lat="51.9489117991" lon="-1.9621672388"><ele>41.82</ele><time>2023-07-12T09:40:36Z</time></trkpt><trkpt lat="51.9489368610" lon="-1.9621798955"><ele>41.82</ele><time>2023-07-12T09:41:01Z</time></trkpt><trkpt lat="51.9489513617" lon="-1.9621672388"><ele>41.82</ele><time>2023-07-12T09:41:34Z</time></trkpt><trkpt lat="51.9489700533" lon="-1.9621942285"><ele>41.82</ele><time>2023-07-12T09:41:57Z</time></trkpt><trkpt lat="51.9489537925" lon="-1.9622172788"><ele>41.82</ele><time>2023-07-12T09:42:32Z</time></trkpt><trkpt lat="51.9489278086" lon="-1.9622036163"><ele>41.82</ele><time>2023-07-12T09:42:54Z</time></trkpt><trkpt lat="51.9489304069" lon="-1.9621975813"><ele>41.82</ele><time>2023-07-12T09:43:16Z</time></trkpt><trkpt lat="51.9489403814" lon="-1.9621961564"><ele>41.82</ele><time>2023-07-12T09:43:43Z</time></trkpt><trkpt lat="51.9489412196" lon="-1.9621756207"><ele>41.82</ele><time>2023-07-12T09:44:18Z</time></trkpt><trkpt lat="51.9489465002" lon="-1.9621600304"><ele>41.82</ele><time>2023-07-12T09:44:41Z</time></trkpt><trkpt lat="51.9489330053" lon="-1.9620897900"><ele>41.82</ele><time>2023-07-12T09:44:47Z</time></trkpt><trkpt lat="51.9488864020" lon="-1.9619567692"><ele>41.18</ele><time>2023-07-12T09:44:58Z</time></trkpt><trkpt lat="51.9488764275" lon="-1.9619006105"><ele>40.54</ele><time>2023-07-12T09:45:11Z</time></trkpt><trkpt lat="51.9488633517" lon="-1.9618265983"><ele>40.44</ele><time>2023-07-12T09:45:33Z</time></trkpt><trkpt lat="51.9488732424" lon="-1.9617172144"><ele>40.62</ele><time>2023-07-12T09:45:41Z</time></trkpt><trkpt lat="51.9488734100" lon="-1.9616808370"><ele>40.62</ele><time>2023-07-12T09:45:43Z</time></trkpt><trkpt lat="51.9488659501" lon="-1.9616291206"><ele>40.63</ele><time>2023-07-12T09:45:46Z</time></trkpt><trkpt lat="51.9488747511" lon="-1.9615807571"><ele>40.65</ele><time>2023-07-12T09:45:49Z</time></trkpt><trkpt lat="51.9488491025" lon="-1.9614251051"><ele>41.30</ele><time>2023-07-12T09:46:03Z</time></trkpt><trkpt lat="51.9488480128" lon="-1.9614114426"><ele>41.32</ele><time>2023-07-12T09:46:04Z</time></trkpt><trkpt lat="51.9488494378" lon="-1.9612235203"><ele>42.74</ele><time>2023-07-12T09:46:17Z</time></trkpt><trkpt lat="51.9488397986" lon="-1.9609812833"><ele>44.33</ele><time>2023-07-12T09:46:33Z</time></trkpt><trkpt lat="51.9488395471" lon="-1.9608826283"><ele>47.36</ele><time>2023-07-12T09:46:48Z</time></trkpt><trkpt lat="51.9488967955" lon="-1.9606863242"><ele>48.62</ele><time>2023-07-12T09:47:09Z</time></trkpt><trkpt lat="51.9489651918" lon="-1.9605256431"><ele>49.55</ele><time>2023-07-12T09:47:29Z</time></trkpt><trkpt lat="51.9490299840" lon="-1.9603144191"><ele>49.72</ele><time>2023-07-12T09:47:45Z</time></trkpt><trkpt lat="51.9490791019" lon="-1.9601718429"><ele>49.74</ele><time>2023-07-12T09:47:56Z</time></trkpt><trkpt lat="51.9491729792" lon="-1.9599991757"><ele>50.42</ele><time>2023-07-12T09:48:09Z</time></trkpt><trkpt lat="51.9492214266" lon="-1.9598446134"><ele>50.61</ele><time>2023-07-12T09:48:21Z</time></trkpt><trkpt lat="51.9492819440" lon="-1.9597668294"><ele>51.15</ele><time>2023-07-12T09:48:36Z</time></trkpt><trkpt lat="51.9493189920" lon="-1.9596540090"><ele>51.10</ele><time>2023-07-12T09:48:48Z</time></trkpt><trkpt lat="51.9493779168" lon="-1.9595258497"><ele>51.44</ele><time>2023-07-12T09:49:02Z</time></trkpt><trkpt lat="51.9494243525" lon="-1.9593925774"><ele>51.52</ele><time>2023-07-12T09:49:18Z</time></trkpt><trkpt lat="51.9494546950" lon="-1.9593432918"><ele>52.15</ele><time>2023-07-12T09:49:43Z</time></trkpt><trkpt lat="51.9494506717" lon="-1.9593336526"><ele>52.14</ele><time>2023-07-12T09:49:44Z</time></trkpt><trkpt lat="51.9494335726" lon="-1.9593070820"><ele>51.97</ele><time>2023-07-12T09:49:47Z</time></trkpt><trkpt lat="51.9494178984" lon="-1.9592795055"><ele>51.90</ele><time>2023-07-12T09:49:49Z</time></trkpt><trkpt lat="51.9493710436" lon="-1.9591503404"><ele>51.96</ele><time>2023-07-12T09:49:59Z</time></trkpt><trkpt lat="51.9493317325" lon="-1.9590479136"><ele>52.13</ele><time>2023-07-12T09:50:07Z</time></trkpt><trkpt lat="51.9493040722" lon="-1.9589538686"><ele>52.32</ele><time>2023-07-12T09:50:17Z</time></trkpt><trkpt lat="51.9492645934" lon="-1.9588782638"><ele>52.73</ele><time>2023-07-12T09:50:23Z</time></trkpt><trkpt lat="51.9492566306" lon="-1.9587822910"><ele>52.90</ele><time>2023-07-12T09:50:30Z</time></trkpt><trkpt lat="51.9492603187" lon="-1.9586574007"><ele>53.11</ele><time>2023-07-12T09:50:42Z</time></trkpt><trkpt lat="51.9492446445" lon="-1.9585962128"><ele>53.10</ele><time>2023-07-12T09:50:47Z</time></trkpt><trkpt lat="51.9492018130" lon="-1.9584477693"><ele>53.25</ele><time>2023-07-12T09:51:00Z</time></trkpt><trkpt lat="51.9491481688" lon="-1.9583205320"><ele>53.64</ele><time>2023-07-12T09:51:14Z</time></trkpt><trkpt lat="51.9491039123" lon="-1.9582376350"><ele>54.24</ele><time>2023-07-12T09:51:32Z</time></trkpt><trkpt lat="51.9490634277" lon="-1.9581967313"><ele>54.01</ele><time>2023-07-12T09:51:50Z</time></trkpt><trkpt lat="51.9490587339" lon="-1.9581659697"><ele>54.05</ele><time>2023-07-12T09:52:16Z</time></trkpt><trkpt lat="51.9490404613" lon="-1.9581625331"><ele>54.05</ele><time>2023-07-12T09:52:42Z</time></trkpt><trkpt lat="51.9489965402" lon="-1.9580567535"><ele>54.09</ele><time>2023-07-12T09:53:01Z</time></trkpt><trkpt lat="51.9489585701" lon="-1.9579833280"><ele>54.09</ele><time>2023-07-12T09:53:12Z</time></trkpt><trkpt lat="51.9489232823" lon="-1.9578251615"><ele>54.09</ele><time>2023-07-12T09:53:30Z</time></trkpt><trkpt lat="51.9488770980" lon="-1.9577390794"><ele>54.09</ele><time>2023-07-12T09:53:45Z</time></trkpt><trkpt lat="51.9488771819" lon="-1.9577176217"><ele>54.09</ele><time>2023-07-12T09:53:52Z</time></trkpt><trkpt lat="51.9489013217" lon="-1.9576286897"><ele>54.09</ele><time>2023-07-12T09:54:19Z</time></trkpt><trkpt lat="51.9489093684" lon="-1.9575847685"><ele>54.09</ele><time>2023-07-12T09:54:41Z</time></trkpt><trkpt lat="51.9488301594" lon="-1.9575410150"><ele>54.09</ele><time>2023-07-12T09:55:50Z</time></trkpt><trkpt lat="51.9488435704" lon="-1.9575948268"><ele>54.09</ele><time>2023-07-12T09:56:34Z</time></trkpt><trkpt lat="51.9489489309" lon="-1.9575798232"><ele>55.33</ele><time>2023-07-12T09:57:00Z</time></trkpt><trkpt lat="51.9488876592" lon="-1.9575675018"><ele>55.33</ele><time>2023-07-12T09:57:18Z</time></trkpt><trkpt lat="51.9488934427" lon="-1.9575947430"><ele>55.56</ele><time>2023-07-12T09:57:42Z</time></trkpt><trkpt lat="51.9488526229" lon="-1.9576230738"><ele>55.56</ele><time>2023-07-12T09:58:10Z</time></trkpt><trkpt lat="51.9488475937" lon="-1.9576672465"><ele>55.56</ele><time>2023-07-12T09:58:37Z</time></trkpt><trkpt lat="51.9488569815" lon="-1.9576993492"><ele>55.56</ele><time>2023-07-12T09:59:03Z</time></trkpt><trkpt lat="51.9488930237" lon="-1.9576248340"><ele>55.51</ele><time>2023-07-12T09:59:31Z</time></trkpt><trkpt lat="51.9489428960" lon="-1.9575659093"><ele>55.53</ele><time>2023-07-12T09:59:57Z</time></trkpt><trkpt lat="51.9489781838" lon="-1.9575844333"><ele>55.70</ele><time>2023-07-12T10:00:24Z</time></trkpt><trkpt lat="51.9489626773" lon="-1.9575483073"><ele>55.42</ele><time>2023-07-12T10:00:46Z</time></trkpt><trkpt lat="51.9489654433" lon="-1.9575301185"><ele>55.42</ele><time>2023-07-12T10:01:12Z</time></trkpt><trkpt lat="51.9490131363" lon="-1.9575510733"><ele>55.42</ele><time>2023-07-12T10:01:38Z</time></trkpt><trkpt lat="51.9490086939" lon="-1.9576187152"><ele>55.42</ele><time>2023-07-12T10:02:04Z</time></trkpt><trkpt lat="51.9489532895" lon="-1.9576250017"><ele>55.42</ele><time>2023-07-12T10:02:31Z</time></trkpt><trkpt lat="51.9489210192" lon="-1.9576170389"><ele>55.42</ele><time>2023-07-12T10:02:57Z</time></trkpt><trkpt lat="51.9489563908" lon="-1.9576362334"><ele>55.42</ele><time>2023-07-12T10:03:22Z</time></trkpt><trkpt lat="51.9489547145" lon="-1.9576110039"><ele>55.42</ele><time>2023-07-12T10:03:47Z</time></trkpt><trkpt lat="51.9489480089" lon="-1.9575800747"><ele>55.42</ele><time>2023-07-12T10:04:13Z</time></trkpt><trkpt lat="51.9489682931" lon="-1.9575535040"><ele>55.42</ele><time>2023-07-12T10:04:40Z</time></trkpt><trkpt lat="51.9489931036" lon="-1.9575613830"><ele>55.42</ele><time>2023-07-12T10:05:05Z</time></trkpt><trkpt lat="51.9489978813" lon="-1.9576140214"><ele>55.42</ele><time>2023-07-12T10:05:30Z</time></trkpt><trkpt lat="51.9490031619" lon="-1.9575880375"><ele>55.42</ele><time>2023-07-12T10:05:59Z</time></trkpt><trkpt lat="51.9490343425" lon="-1.9576358143"><ele>55.42</ele><time>2023-07-12T10:06:23Z</time></trkpt><trkpt lat="51.9490441494" lon="-1.9576752093"><ele>55.42</ele><time>2023-07-12T10:06:44Z</time></trkpt><trkpt lat="51.9490017369" lon="-1.9577043783"><ele>55.42</ele><time>2023-07-12T10:07:24Z</time></trkpt><trkpt lat="51.9489234500" lon="-1.9576059747"><ele>55.42</ele><time>2023-07-12T10:07:50Z</time></trkpt><trkpt lat="51.9489290658" lon="-1.9575897139"><ele>55.42</ele><time>2023-07-12T10:08:19Z</time></trkpt><trkpt lat="51.9489653595" lon="-1.9576068129"><ele>55.42</ele><time>2023-07-12T10:09:07Z</time></trkpt><trkpt lat="51.9489123859" lon="-1.9575734530"><ele>55.42</ele><time>2023-07-12T10:09:32Z</time></trkpt><trkpt lat="51.9488510303" lon="-1.9576055557"><ele>56.06</ele><time>2023-07-12T10:09:57Z</time></trkpt><trkpt lat="51.9487475976" lon="-1.9575763028"><ele>56.32</ele><time>2023-07-12T10:10:22Z</time></trkpt><trkpt lat="51.9488096237" lon="-1.9575755484"><ele>56.18</ele><time>2023-07-12T10:10:48Z</time></trkpt><trkpt lat="51.9488626812" lon="-1.9576004427"><ele>56.18</ele><time>2023-07-12T10:11:15Z</time></trkpt><trkpt lat="51.9488781039" lon="-1.9576043822"><ele>56.18</ele><time>2023-07-12T10:11:38Z</time></trkpt><trkpt lat="51.9489113800" lon="-1.9575815834"><ele>56.18</ele><time>2023-07-12T10:12:05Z</time></trkpt><trkpt lat="51.9489228632" lon="-1.9575776439"><ele>56.18</ele><time>2023-07-12T10:12:32Z</time></trkpt><trkpt lat="51.9489547145" lon="-1.9575754646"><ele>56.18</ele><time>2023-07-12T10:13:01Z</time></trkpt><trkpt lat="51.9489671197" lon="-1.9575885404"><ele>56.18</ele><time>2023-07-12T10:13:30Z</time></trkpt><trkpt lat="51.9489649404" lon="-1.9575991016"><ele>56.18</ele><time>2023-07-12T10:14:04Z</time></trkpt><trkpt lat="51.9489619229" lon="-1.9576031249"><ele>56.18</ele><time>2023-07-12T10:14:31Z</time></trkpt><trkpt lat="51.9490139745" lon="-1.9576318748"><ele>56.18</ele><time>2023-07-12T10:14:56Z</time></trkpt><trkpt lat="51.9490709715" lon="-1.9576715212"><ele>56.18</ele><time>2023-07-12T10:15:18Z</time></trkpt><trkpt lat="51.9490512740" lon="-1.9577063061"><ele>55.44</ele><time>2023-07-12T10:16:00Z</time></trkpt><trkpt lat="51.9489312451" lon="-1.9576358143"><ele>55.36</ele><time>2023-07-12T10:17:13Z</time></trkpt><trkpt lat="51.9489271380" lon="-1.9577233214"><ele>55.05</ele><time>2023-07-12T10:17:41Z</time></trkpt><trkpt lat="51.9489092845" lon="-1.9577811565"><ele>54.94</ele><time>2023-07-12T10:18:07Z</time></trkpt><trkpt lat="51.9489237852" lon="-1.9577555917"><ele>54.94</ele><time>2023-07-12T10:18:33Z</time></trkpt><trkpt lat="51.9489278086" lon="-1.9577490538"><ele>54.94</ele><time>2023-07-12T10:18:57Z</time></trkpt><trkpt lat="51.9489164092" lon="-1.9577138498"><ele>54.94</ele><time>2023-07-12T10:19:20Z</time></trkpt><trkpt lat="51.9489506073" lon="-1.9576619659"><ele>55.00</ele><time>2023-07-12T10:19:47Z</time></trkpt><trkpt lat="51.9489278086" lon="-1.9576381613"><ele>55.22</ele><time>2023-07-12T10:20:13Z</time></trkpt><trkpt lat="51.9489452429" lon="-1.9576457888"><ele>55.20</ele><time>2023-07-12T10:20:36Z</time></trkpt><trkpt lat="51.9489460811" lon="-1.9576090761"><ele>55.26</ele><time>2023-07-12T10:21:08Z</time></trkpt><trkpt lat="51.9489653595" lon="-1.9576203078"><ele>55.26</ele><time>2023-07-12T10:21:34Z</time></trkpt><trkpt lat="51.9489696342" lon="-1.9575843494"><ele>55.26</ele><time>2023-07-12T10:22:01Z</time></trkpt><trkpt lat="51.9489506911" lon="-1.9576085731"><ele>55.26</ele><time>2023-07-12T10:22:24Z</time></trkpt><trkpt lat="51.9489732385" lon="-1.9575865287"><ele>55.26</ele><time>2023-07-12T10:22:48Z</time></trkpt><trkpt lat="51.9489403814" lon="-1.9575861935"><ele>55.26</ele><time>2023-07-12T10:23:13Z</time></trkpt><trkpt lat="51.9489172474" lon="-1.9575923961"><ele>55.26</ele><time>2023-07-12T10:23:37Z</time></trkpt><trkpt lat="51.9489039201" lon="-1.9576342218"><ele>55.26</ele><time>2023-07-12T10:24:06Z</time></trkpt><trkpt lat="51.9489617553" lon="-1.9576133508"><ele>55.26</ele><time>2023-07-12T10:24:45Z</time></trkpt><trkpt lat="51.9489658624" lon="-1.9576091599"><ele>55.26</ele><time>2023-07-12T10:25:21Z</time></trkpt><trkpt lat="51.9489517808" lon="-1.9576330483"><ele>55.26</ele><time>2023-07-12T10:25:46Z</time></trkpt><trkpt lat="51.9489431474" lon="-1.9576033764"><ele>55.26</ele><time>2023-07-12T10:26:06Z</time></trkpt><trkpt lat="51.9489450753" lon="-1.9575953297"><ele>55.26</ele><time>2023-07-12T10:26:33Z</time></trkpt><trkpt lat="51.9489413034" lon="-1.9576585293"><ele>56.23</ele><time>2023-07-12T10:26:44Z</time></trkpt><trkpt lat="51.9489352684" lon="-1.9576598704"><ele>55.79</ele><time>2023-07-12T10:26:59Z</time></trkpt><trkpt lat="51.9489647727" lon="-1.9576226547"><ele>56.06</ele><time>2023-07-12T10:27:38Z</time></trkpt><trkpt lat="51.9489844702" lon="-1.9575922284"><ele>55.95</ele><time>2023-07-12T10:28:02Z</time></trkpt><trkpt lat="51.9489546306" lon="-1.9576336350"><ele>55.95</ele><time>2023-07-12T10:28:24Z</time></trkpt><trkpt lat="51.9489812013" lon="-1.9575983472"><ele>55.95</ele><time>2023-07-12T10:28:47Z</time></trkpt><trkpt lat="51.9489620905" lon="-1.9576222356"><ele>55.95</ele><time>2023-07-12T10:29:10Z</time></trkpt><trkpt lat="51.9489521161" lon="-1.9576229900"><ele>55.95</ele><time>2023-07-12T10:29:34Z</time></trkpt><trkpt lat="51.9489238691" lon="-1.9576842617"><ele>55.95</ele><time>2023-07-12T10:29:59Z</time></trkpt><trkpt lat="51.9489354361" lon="-1.9576626364"><ele>55.95</ele><time>2023-07-12T10:30:10Z</time></trkpt><trkpt lat="51.9489435665" lon="-1.9576160330"><ele>55.95</ele><time>2023-07-12T10:30:36Z</time></trkpt><trkpt lat="51.9489399623" lon="-1.9576540869"><ele>55.95</ele><time>2023-07-12T10:31:05Z</time></trkpt><trkpt lat="51.9489632640" lon="-1.9576243311"><ele>55.95</ele><time>2023-07-12T10:31:32Z</time></trkpt><trkpt lat="51.9489421416" lon="-1.9576301984"><ele>55.95</ele><time>2023-07-12T10:32:00Z</time></trkpt><trkpt lat="51.9489337597" lon="-1.9577037077"><ele>55.95</ele><time>2023-07-12T10:32:25Z</time></trkpt><trkpt lat="51.9489374477" lon="-1.9576660730"><ele>55.95</ele><time>2023-07-12T10:32:53Z</time></trkpt><trkpt lat="51.9489522837" lon="-1.9575643167"><ele>55.95</ele><time>2023-07-12T10:33:20Z</time></trkpt><trkpt lat="51.9489641022" lon="-1.9575460441"><ele>55.95</ele><time>2023-07-12T10:33:47Z</time></trkpt><trkpt lat="51.9489719812" lon="-1.9575379975"><ele>55.95</ele><time>2023-07-12T10:34:11Z</time></trkpt><trkpt lat="51.9489855599" lon="-1.9575281907"><ele>55.95</ele><time>2023-07-12T10:34:38Z</time></trkpt><trkpt lat="51.9489871524" lon="-1.9575001113"><ele>55.95</ele><time>2023-07-12T10:35:04Z</time></trkpt><trkpt lat="51.9489536248" lon="-1.9575446192"><ele>55.95</ele><time>2023-07-12T10:35:31Z</time></trkpt><trkpt lat="51.9489567261" lon="-1.9575655740"><ele>55.95</ele><time>2023-07-12T10:35:57Z</time></trkpt><trkpt lat="51.9489433989" lon="-1.9575747102"><ele>55.95</ele><time>2023-07-12T10:36:21Z</time></trkpt><trkpt lat="51.9489449915" lon="-1.9575813320"><ele>55.95</ele><time>2023-07-12T10:36:48Z</time></trkpt><trkpt lat="51.9489480928" lon="-1.9576191343"><ele>55.95</ele><time>2023-07-12T10:37:20Z</time></trkpt><trkpt lat="51.9489417225" lon="-1.9576182961"><ele>55.95</ele><time>2023-07-12T10:37:55Z</time></trkpt><trkpt lat="51.9489394594" lon="-1.9576314557"><ele>55.95</ele><time>2023-07-12T10:38:19Z</time></trkpt><trkpt lat="51.9489045907" lon="-1.9576410111"><ele>55.95</ele><time>2023-07-12T10:38:44Z</time></trkpt><trkpt lat="51.9489157386" lon="-1.9576462917"><ele>55.95</ele><time>2023-07-12T10:39:21Z</time></trkpt><trkpt lat="51.9489086978" lon="-1.9577534124"><ele>56.85</ele><time>2023-07-12T10:39:35Z</time></trkpt><trkpt lat="51.9489561394" lon="-1.9576882850"><ele>56.72</ele><time>2023-07-12T10:39:52Z</time></trkpt><trkpt lat="51.9489738252" lon="-1.9575741235"><ele>56.98</ele><time>2023-07-12T10:40:08Z</time></trkpt><trkpt lat="51.9489455782" lon="-1.9576486386"><ele>56.97</ele><time>2023-07-12T10:40:29Z</time></trkpt><trkpt lat="51.9489171635" lon="-1.9576095790"><ele>56.75</ele><time>2023-07-12T10:40:54Z</time></trkpt><trkpt lat="51.9489095360" lon="-1.9576516561"><ele>56.75</ele><time>2023-07-12T10:41:12Z</time></trkpt><trkpt lat="51.9489224441" lon="-1.9576617982"><ele>56.75</ele><time>2023-07-12T10:41:37Z</time></trkpt><trkpt lat="51.9488978013" lon="-1.9577029534"><ele>56.75</ele><time>2023-07-12T10:42:00Z</time></trkpt><trkpt lat="51.9488959573" lon="-1.9576772209"><ele>56.75</ele><time>2023-07-12T10:42:22Z</time></trkpt><trkpt lat="51.9489087816" lon="-1.9576150272"><ele>56.75</ele><time>2023-07-12T10:42:28Z</time></trkpt><trkpt lat="51.9489446562" lon="-1.9575476367"><ele>56.72</ele><time>2023-07-12T10:42:42Z</time></trkpt><trkpt lat="51.9489534572" lon="-1.9575697649"><ele>56.74</ele><time>2023-07-12T10:42:44Z</time></trkpt><trkpt lat="51.9489237852" lon="-1.9576431066"><ele>56.69</ele><time>2023-07-12T10:42:57Z</time></trkpt><trkpt lat="51.9488985557" lon="-1.9576281868"><ele>56.29</ele><time>2023-07-12T10:43:22Z</time></trkpt><trkpt lat="51.9489482604" lon="-1.9575436134"><ele>56.14</ele><time>2023-07-12T10:43:31Z</time></trkpt><trkpt lat="51.9489465840" lon="-1.9575307891"><ele>56.76</ele><time>2023-07-12T10:43:47Z</time></trkpt><trkpt lat="51.9489760045" lon="-1.9575021230"><ele>56.76</ele><time>2023-07-12T10:44:04Z</time></trkpt><trkpt lat="51.9489934389" lon="-1.9574086647"><ele>56.76</ele><time>2023-07-12T10:44:24Z</time></trkpt><trkpt lat="51.9489655271" lon="-1.9573544338"><ele>56.76</ele><time>2023-07-12T10:44:34Z</time></trkpt><trkpt lat="51.9489680417" lon="-1.9574767258"><ele>56.97</ele><time>2023-07-12T10:45:04Z</time></trkpt><trkpt lat="51.9490288943" lon="-1.9575187191"><ele>56.28</ele><time>2023-07-12T10:45:22Z</time></trkpt><trkpt lat="51.9490229432" lon="-1.9574351516"><ele>56.73</ele><time>2023-07-12T10:45:37Z</time></trkpt><trkpt lat="51.9489062671" lon="-1.9572770689"><ele>56.77</ele><time>2023-07-12T10:46:11Z</time></trkpt><trkpt lat="51.9488551375" lon="-1.9572532643"><ele>56.79</ele><time>2023-07-12T10:46:17Z</time></trkpt><trkpt lat="51.9488665368" lon="-1.9572424516"><ele>57.04</ele><time>2023-07-12T10:46:32Z</time></trkpt><trkpt lat="51.9489271380" lon="-1.9572976045"><ele>56.98</ele><time>2023-07-12T10:46:38Z</time></trkpt><trkpt lat="51.9489962887" lon="-1.9573474769"><ele>56.90</ele><time>2023-07-12T10:46:50Z</time></trkpt><trkpt lat="51.9489870686" lon="-1.9573126081"><ele>56.87</ele><time>2023-07-12T10:46:53Z</time></trkpt><trkpt lat="51.9489728194" lon="-1.9572643284"><ele>56.71</ele><time>2023-07-12T10:46:57Z</time></trkpt><trkpt lat="51.9489474222" lon="-1.9572076667"><ele>56.65</ele><time>2023-07-12T10:47:01Z</time></trkpt><trkpt lat="51.9488895871" lon="-1.9571103528"><ele>56.59</ele><time>2023-07-12T10:47:08Z</time></trkpt><trkpt lat="51.9488896709" lon="-1.9570520986"><ele>56.59</ele><time>2023-07-12T10:47:11Z</time></trkpt><trkpt lat="51.9490144774" lon="-1.9570916612"><ele>57.01</ele><time>2023-07-12T10:47:44Z</time></trkpt><trkpt lat="51.9489609171" lon="-1.9573505782"><ele>56.77</ele><time>2023-07-12T10:48:23Z</time></trkpt><trkpt lat="51.9490239490" lon="-1.9573319703"><ele>56.77</ele><time>2023-07-12T10:48:49Z</time></trkpt><trkpt lat="51.9489245396" lon="-1.9573281985"><ele>56.96</ele><time>2023-07-12T10:49:22Z</time></trkpt><trkpt lat="51.9489664491" lon="-1.9572958443"><ele>56.67</ele><time>2023-07-12T10:49:33Z</time></trkpt><trkpt lat="51.9490188360" lon="-1.9572641607"><ele>56.73</ele><time>2023-07-12T10:50:09Z</time></trkpt><trkpt lat="51.9488973822" lon="-1.9572798349"><ele>56.78</ele><time>2023-07-12T10:50:19Z</time></trkpt><trkpt lat="51.9489630125" lon="-1.9571244344"><ele>56.38</ele><time>2023-07-12T10:51:29Z</time></trkpt><trkpt lat="51.9489926845" lon="-1.9571286254"><ele>56.32</ele><time>2023-07-12T10:51:42Z</time></trkpt><trkpt lat="51.9490627572" lon="-1.9572426192"><ele>56.33</ele><time>2023-07-12T10:51:51Z</time></trkpt><trkpt lat="51.9490163215" lon="-1.9573213253"><ele>56.38</ele><time>2023-07-12T10:51:58Z</time></trkpt><trkpt lat="51.9490205124" lon="-1.9575136900"><ele>56.44</ele><time>2023-07-12T10:52:13Z</time></trkpt><trkpt lat="51.9489894994" lon="-1.9576175418"><ele>56.01</ele><time>2023-07-12T10:52:29Z</time></trkpt><trkpt lat="51.9489449915" lon="-1.9576365687"><ele>55.92</ele><time>2023-07-12T10:52:46Z</time></trkpt><trkpt lat="51.9489551336" lon="-1.9576339703"><ele>55.71</ele><time>2023-07-12T10:53:07Z</time></trkpt><trkpt lat="51.9489501044" lon="-1.9577412587"><ele>55.95</ele><time>2023-07-12T10:53:21Z</time></trkpt><trkpt lat="51.9490240328" lon="-1.9578731060"><ele>55.47</ele><time>2023-07-12T10:53:39Z</time></trkpt><trkpt lat="51.9490790181" lon="-1.9579768740"><ele>55.47</ele><time>2023-07-12T10:53:53Z</time></trkpt><trkpt lat="51.9491211791" lon="-1.9581393991"><ele>55.47</ele><time>2023-07-12T10:54:07Z</time></trkpt><trkpt lat="51.9491754100" lon="-1.9582295045"><ele>55.47</ele><time>2023-07-12T10:54:16Z</time></trkpt><trkpt lat="51.9492062554" lon="-1.9583046902"><ele>54.23</ele><time>2023-07-12T10:54:23Z</time></trkpt><trkpt lat="51.9492132124" lon="-1.9583552331"><ele>53.90</ele><time>2023-07-12T10:54:27Z</time></trkpt><trkpt lat="51.9492214266" lon="-1.9584102184"><ele>53.81</ele><time>2023-07-12T10:54:31Z</time></trkpt><trkpt lat="51.9492060039" lon="-1.9585776888"><ele>53.54</ele><time>2023-07-12T10:54:42Z</time></trkpt><trkpt lat="51.9491513539" lon="-1.9587819558"><ele>53.44</ele><time>2023-07-12T10:54:59Z</time></trkpt><trkpt lat="51.9491449837" lon="-1.9588756654"><ele>53.34</ele><time>2023-07-12T10:55:07Z</time></trkpt><trkpt lat="51.9490681216" lon="-1.9591423776"><ele>53.18</ele><time>2023-07-12T10:55:23Z</time></trkpt><trkpt lat="51.9490778446" lon="-1.9593142066"><ele>52.65</ele><time>2023-07-12T10:55:40Z</time></trkpt><trkpt lat="51.9491189998" lon="-1.9594138674"><ele>52.60</ele><time>2023-07-12T10:55:58Z</time></trkpt><trkpt lat="51.9490619190" lon="-1.9594954234"><ele>52.04</ele><time>2023-07-12T10:56:11Z</time></trkpt><trkpt lat="51.9489967078" lon="-1.9595442060"><ele>51.92</ele><time>2023-07-12T10:56:30Z</time></trkpt><trkpt lat="51.9489883259" lon="-1.9595499057"><ele>52.01</ele><time>2023-07-12T10:56:59Z</time></trkpt><trkpt lat="51.9490156509" lon="-1.9595223293"><ele>51.58</ele><time>2023-07-12T10:57:27Z</time></trkpt><trkpt lat="51.9490211830" lon="-1.9595307112"><ele>51.66</ele><time>2023-07-12T10:57:58Z</time></trkpt><trkpt lat="51.9489962049" lon="-1.9595461339"><ele>51.66</ele><time>2023-07-12T10:58:17Z</time></trkpt><trkpt lat="51.9489919301" lon="-1.9595617242"><ele>51.66</ele><time>2023-07-12T10:58:40Z</time></trkpt><trkpt lat="51.9489216059" lon="-1.9596032985"><ele>51.66</ele><time>2023-07-12T10:59:04Z</time></trkpt><trkpt lat="51.9489083625" lon="-1.9596100878"><ele>51.66</ele><time>2023-07-12T10:59:05Z</time></trkpt><trkpt lat="51.9488560595" lon="-1.9596437830"><ele>51.65</ele><time>2023-07-12T10:59:10Z</time></trkpt><trkpt lat="51.9488491863" lon="-1.9597309548"><ele>51.58</ele><time>2023-07-12T10:59:17Z</time></trkpt><trkpt lat="51.9488694705" lon="-1.9597587828"><ele>51.47</ele><time>2023-07-12T10:59:19Z</time></trkpt><trkpt lat="51.9489123020" lon="-1.9599017780"><ele>51.43</ele><time>2023-07-12T10:59:28Z</time></trkpt><trkpt lat="51.9488845579" lon="-1.9601839967"><ele>50.75</ele><time>2023-07-12T10:59:42Z</time></trkpt><trkpt lat="51.9488831330" lon="-1.9603030197"><ele>50.57</ele><time>2023-07-12T10:59:48Z</time></trkpt><trkpt lat="51.9488770142" lon="-1.9604252279"><ele>50.52</ele><time>2023-07-12T10:59:54Z</time></trkpt><trkpt lat="51.9489173312" lon="-1.9606538862"><ele>49.66</ele><time>2023-07-12T11:00:07Z</time></trkpt><trkpt lat="51.9489283115" lon="-1.9606835581"><ele>49.56</ele><time>2023-07-12T11:00:09Z</time></trkpt><trkpt lat="51.9489426445" lon="-1.9607621804"><ele>49.28</ele><time>2023-07-12T11:00:13Z</time></trkpt><trkpt lat="51.9489364419" lon="-1.9608712289"><ele>46.87</ele><time>2023-07-12T11:00:26Z</time></trkpt><trkpt lat="51.9489473384" lon="-1.9608823769"><ele>46.26</ele><time>2023-07-12T11:00:49Z</time></trkpt><trkpt lat="51.9489470869" lon="-1.9608717319"><ele>46.28</ele><time>2023-07-12T11:01:17Z</time></trkpt><trkpt lat="51.9489286467" lon="-1.9609079417"><ele>46.12</ele><time>2023-07-12T11:01:46Z</time></trkpt><trkpt lat="51.9489192590" lon="-1.9608939439"><ele>45.84</ele><time>2023-07-12T11:02:05Z</time></trkpt><trkpt lat="51.9489233661" lon="-1.9609127194"><ele>45.57</ele><time>2023-07-12T11:02:33Z</time></trkpt><trkpt lat="51.9489351846" lon="-1.9608930219"><ele>45.57</ele><time>2023-07-12T11:03:00Z</time></trkpt><trkpt lat="51.9489372801" lon="-1.9608916808"><ele>45.57</ele><time>2023-07-12T11:03:22Z</time></trkpt><trkpt lat="51.9489558041" lon="-1.9609060977"><ele>45.57</ele><time>2023-07-12T11:03:45Z</time></trkpt><trkpt lat="51.9488904253" lon="-1.9609252922"><ele>45.57</ele><time>2023-07-12T11:04:05Z</time></trkpt><trkpt lat="51.9488811214" lon="-1.9609892461"><ele>45.57</ele><time>2023-07-12T11:04:10Z</time></trkpt><trkpt lat="51.9488819595" lon="-1.9610320777"><ele>45.57</ele><time>2023-07-12T11:04:12Z</time></trkpt><trkpt lat="51.9488597475" lon="-1.9613044057"><ele>44.95</ele><time>2023-07-12T11:04:25Z</time></trkpt><trkpt lat="51.9488605857" lon="-1.9613745622"><ele>44.37</ele><time>2023-07-12T11:04:28Z</time></trkpt><trkpt lat="51.9488761760" lon="-1.9616539311"><ele>42.31</ele><time>2023-07-12T11:04:40Z</time></trkpt><trkpt lat="51.9488772657" lon="-1.9617329724"><ele>41.73</ele><time>2023-07-12T11:04:49Z</time></trkpt><trkpt lat="51.9488732424" lon="-1.9617566094"><ele>41.65</ele><time>2023-07-12T11:04:50Z</time></trkpt><trkpt lat="51.9488683809" lon="-1.9617839344"><ele>41.40</ele><time>2023-07-12T11:04:51Z</time></trkpt><trkpt lat="51.9488642737" lon="-1.9618108403"><ele>41.25</ele><time>2023-07-12T11:04:52Z</time></trkpt><trkpt lat="51.9488613401" lon="-1.9618365727"><ele>41.14</ele><time>2023-07-12T11:04:53Z</time></trkpt><trkpt lat="51.9488829654" lon="-1.9620240759"><ele>41.13</ele><time>2023-07-12T11:05:04Z</time></trkpt><trkpt lat="51.9488904253" lon="-1.9620370679"><ele>41.14</ele><time>2023-07-12T11:05:05Z</time></trkpt><trkpt lat="51.9488958735" lon="-1.9620529935"><ele>41.16</ele><time>2023-07-12T11:05:06Z</time></trkpt><trkpt lat="51.9489012379" lon="-1.9620753732"><ele>41.20</ele><time>2023-07-12T11:05:07Z</time></trkpt><trkpt lat="51.9489278924" lon="-1.9621744473"><ele>41.34</ele><time>2023-07-12T11:05:12Z</time></trkpt><trkpt lat="51.9489337597" lon="-1.9621923007"><ele>41.34</ele><time>2023-07-12T11:05:13Z</time></trkpt><trkpt lat="51.9489754178" lon="-1.9623657223"><ele>41.66</ele><time>2023-07-12T11:05:22Z</time></trkpt><trkpt lat="51.9489791058" lon="-1.9623900298"><ele>41.81</ele><time>2023-07-12T11:05:23Z</time></trkpt><trkpt lat="51.9489858113" lon="-1.9624115713"><ele>41.89</ele><time>2023-07-12T11:05:24Z</time></trkpt><trkpt lat="51.9489895832" lon="-1.9624326937"><ele>41.94</ele><time>2023-07-12T11:05:25Z</time></trkpt><trkpt lat="51.9489926845" lon="-1.9624521397"><ele>41.96</ele><time>2023-07-12T11:05:26Z</time></trkpt><trkpt lat="51.9489964563" lon="-1.9624709152"><ele>41.94</ele><time>2023-07-12T11:05:27Z</time></trkpt><trkpt lat="51.9490006473" lon="-1.9624882657"><ele>41.89</ele><time>2023-07-12T11:05:28Z</time></trkpt><trkpt lat="51.9490052573" lon="-1.9625050295"><ele>41.84</ele><time>2023-07-12T11:05:29Z</time></trkpt><trkpt lat="51.9490073528" lon="-1.9625246432"><ele>41.81</ele><time>2023-07-12T11:05:30Z</time></trkpt><trkpt lat="51.9490083586" lon="-1.9625453465"><ele>41.77</ele><time>2023-07-12T11:05:31Z</time></trkpt><trkpt lat="51.9490379468" lon="-1.9626524672"><ele>41.42</ele><time>2023-07-12T11:05:39Z</time></trkpt><trkpt lat="51.9490444846" lon="-1.9626719132"><ele>41.42</ele><time>2023-07-12T11:05:40Z</time></trkpt><trkpt lat="51.9490486756" lon="-1.9626938738"><ele>41.42</ele><time>2023-07-12T11:05:41Z</time></trkpt><trkpt lat="51.9490827899" lon="-1.9627487753"><ele>41.41</ele><time>2023-07-12T11:05:45Z</time></trkpt><trkpt lat="51.9490941055" lon="-1.9627656229"><ele>41.40</ele><time>2023-07-12T11:05:46Z</time></trkpt><trkpt lat="51.9491454866" lon="-1.9629158266"><ele>41.61</ele><time>2023-07-12T11:05:54Z</time></trkpt><trkpt lat="51.9491550419" lon="-1.9629323389"><ele>41.63</ele><time>2023-07-12T11:05:55Z</time></trkpt><trkpt lat="51.9491674472" lon="-1.9629692193"><ele>41.65</ele><time>2023-07-12T11:05:57Z</time></trkpt><trkpt lat="51.9491935149" lon="-1.9631006476"><ele>41.65</ele><time>2023-07-12T11:06:04Z</time></trkpt><trkpt lat="51.9491967838" lon="-1.9631264638"><ele>41.66</ele><time>2023-07-12T11:06:05Z</time></trkpt><trkpt lat="51.9492054172" lon="-1.9631491788"><ele>41.68</ele><time>2023-07-12T11:06:06Z</time></trkpt><trkpt lat="51.9492153078" lon="-1.9631666131"><ele>41.74</ele><time>2023-07-12T11:06:07Z</time></trkpt><trkpt lat="51.9492205884" lon="-1.9631843828"><ele>41.81</ele><time>2023-07-12T11:06:08Z</time></trkpt><trkpt lat="51.9492381904" lon="-1.9632928446"><ele>42.31</ele><time>2023-07-12T11:06:14Z</time></trkpt><trkpt lat="51.9492456503" lon="-1.9633153081"><ele>42.39</ele><time>2023-07-12T11:06:15Z</time></trkpt><trkpt lat="51.9492539484" lon="-1.9633351732"><ele>42.50</ele><time>2023-07-12T11:06:16Z</time></trkpt><trkpt lat="51.9492592290" lon="-1.9633546192"><ele>42.62</ele><time>2023-07-12T11:06:17Z</time></trkpt><trkpt lat="51.9492973667" lon="-1.9634689484"><ele>43.35</ele><time>2023-07-12T11:06:24Z</time></trkpt><trkpt lat="51.9493029825" lon="-1.9634920824"><ele>43.42</ele><time>2023-07-12T11:06:25Z</time></trkpt><trkpt lat="51.9493101910" lon="-1.9635155518"><ele>43.49</ele><time>2023-07-12T11:06:26Z</time></trkpt><trkpt lat="51.9493178185" lon="-1.9635380991"><ele>43.66</ele><time>2023-07-12T11:06:27Z</time></trkpt><trkpt lat="51.9493236020" lon="-1.9635587186"><ele>43.72</ele><time>2023-07-12T11:06:28Z</time></trkpt><trkpt lat="51.9493294694" lon="-1.9635770749"><ele>43.77</ele><time>2023-07-12T11:06:29Z</time></trkpt><trkpt lat="51.9493401144" lon="-1.9636455551"><ele>43.96</ele><time>2023-07-12T11:06:33Z</time></trkpt><trkpt lat="51.9493424613" lon="-1.9636671804"><ele>44.02</ele><time>2023-07-12T11:06:34Z</time></trkpt><trkpt lat="51.9493462332" lon="-1.9636914879"><ele>44.08</ele><time>2023-07-12T11:06:35Z</time></trkpt><trkpt lat="51.9493505917" lon="-1.9637158792"><ele>44.18</ele><time>2023-07-12T11:06:36Z</time></trkpt><trkpt lat="51.9493572973" lon="-1.9637339003"><ele>44.27</ele><time>2023-07-12T11:06:37Z</time></trkpt><trkpt lat="51.9493628293" lon="-1.9637483172"><ele>44.34</ele><time>2023-07-12T11:06:38Z</time></trkpt><trkpt lat="51.9493695349" lon="-1.9637629855"><ele>44.41</ele><time>2023-07-12T11:06:39Z</time></trkpt><trkpt lat="51.9493768271" lon="-1.9637775701"><ele>44.49</ele><time>2023-07-12T11:06:40Z</time></trkpt><trkpt lat="51.9493878074" lon="-1.9638212398"><ele>44.85</ele><time>2023-07-12T11:06:43Z</time></trkpt><trkpt lat="51.9493940100" lon="-1.9638371654"><ele>44.94</ele><time>2023-07-12T11:06:44Z</time></trkpt><trkpt lat="51.9494021405" lon="-1.9638790749"><ele>45.15</ele><time>2023-07-12T11:06:47Z</time></trkpt><trkpt lat="51.9494047388" lon="-1.9638972636"><ele>45.19</ele><time>2023-07-12T11:06:48Z</time></trkpt><trkpt lat="51.9494422060" lon="-1.9640799891"><ele>45.72</ele><time>2023-07-12T11:07:03Z</time></trkpt><trkpt lat="51.9495085068" lon="-1.9642407540"><ele>46.34</ele><time>2023-07-12T11:07:19Z</time></trkpt><trkpt lat="51.9495853689" lon="-1.9643843360"><ele>46.95</ele><time>2023-07-12T11:07:33Z</time></trkpt><trkpt lat="51.9496466406" lon="-1.9644878525"><ele>47.30</ele><time>2023-07-12T11:07:49Z</time></trkpt><trkpt lat="51.9497039728" lon="-1.9646740146"><ele>47.75</ele><time>2023-07-12T11:08:09Z</time></trkpt><trkpt lat="51.9497572817" lon="-1.9647161756"><ele>47.52</ele><time>2023-07-12T11:08:34Z</time></trkpt><trkpt lat="51.9497861993" lon="-1.9649302494"><ele>47.78</ele><time>2023-07-12T11:08:49Z</time></trkpt><trkpt lat="51.9497887976" lon="-1.9649458397"><ele>47.82</ele><time>2023-07-12T11:08:50Z</time></trkpt><trkpt lat="51.9498240855" lon="-1.9651282299"><ele>47.95</ele><time>2023-07-12T11:09:04Z</time></trkpt><trkpt lat="51.9499280211" lon="-1.9652984664"><ele>48.13</ele><time>2023-07-12T11:09:22Z</time></trkpt><trkpt lat="51.9500569347" lon="-1.9654143043"><ele>48.03</ele><time>2023-07-12T11:09:40Z</time></trkpt><trkpt lat="51.9500947371" lon="-1.9654491730"><ele>48.10</ele><time>2023-07-12T11:09:45Z</time></trkpt><trkpt lat="51.9502136763" lon="-1.9655284658"><ele>47.79</ele><time>2023-07-12T11:10:01Z</time></trkpt><trkpt lat="51.9503760338" lon="-1.9655524381"><ele>47.64</ele><time>2023-07-12T11:10:25Z</time></trkpt><trkpt lat="51.9505175203" lon="-1.9655533601"><ele>47.33</ele><time>2023-07-12T11:10:45Z</time></trkpt><trkpt lat="51.9506398123" lon="-1.9657111075"><ele>47.08</ele><time>2023-07-12T11:11:04Z</time></trkpt><trkpt lat="51.9506087992" lon="-1.9659014605"><ele>47.33</ele><time>2023-07-12T11:11:13Z</time></trkpt><trkpt lat="51.9505906105" lon="-1.9659887161"><ele>47.19</ele><time>2023-07-12T11:11:29Z</time></trkpt><trkpt lat="51.9506532233" lon="-1.9661152828"><ele>47.21</ele><time>2023-07-12T11:11:47Z</time></trkpt><trkpt lat="51.9506817218" lon="-1.9663024507"><ele>46.56</ele><time>2023-07-12T11:12:01Z</time></trkpt><trkpt lat="51.9506923668" lon="-1.9664157741"><ele>46.62</ele><time>2023-07-12T11:12:09Z</time></trkpt><trkpt lat="51.9506922830" lon="-1.9664320350"><ele>46.63</ele><time>2023-07-12T11:12:10Z</time></trkpt><trkpt lat="51.9506988209" lon="-1.9665855914"><ele>46.42</ele><time>2023-07-12T11:12:25Z</time></trkpt><trkpt lat="51.9506896008" lon="-1.9666625373"><ele>46.12</ele><time>2023-07-12T11:12:33Z</time></trkpt><trkpt lat="51.9506943785" lon="-1.9667450152"><ele>46.05</ele><time>2023-07-12T11:12:38Z</time></trkpt><trkpt lat="51.9507460948" lon="-1.9669672195"><ele>45.90</ele><time>2023-07-12T11:12:55Z</time></trkpt><trkpt lat="51.9507667981" lon="-1.9670661259"><ele>45.78</ele><time>2023-07-12T11:13:03Z</time></trkpt><trkpt lat="51.9508043490" lon="-1.9672425650"><ele>45.73</ele><time>2023-07-12T11:13:19Z</time></trkpt><trkpt lat="51.9507980626" lon="-1.9673598278"><ele>45.26</ele><time>2023-07-12T11:13:34Z</time></trkpt><trkpt lat="51.9507730007" lon="-1.9674264640"><ele>44.21</ele><time>2023-07-12T11:13:52Z</time></trkpt><trkpt lat="51.9508096296" lon="-1.9674720615"><ele>44.25</ele><time>2023-07-12T11:14:11Z</time></trkpt><trkpt lat="51.9508539699" lon="-1.9675829541"><ele>43.92</ele><time>2023-07-12T11:14:25Z</time></trkpt><trkpt lat="51.9508662075" lon="-1.9676419627"><ele>43.21</ele><time>2023-07-12T11:14:44Z</time></trkpt><trkpt lat="51.9509034231" lon="-1.9677427970"><ele>43.01</ele><time>2023-07-12T11:14:53Z</time></trkpt><trkpt lat="51.9509570673" lon="-1.9679172244"><ele>40.51</ele><time>2023-07-12T11:15:08Z</time></trkpt><trkpt lat="51.9510679599" lon="-1.9680244289"><ele>39.31</ele><time>2023-07-12T11:15:26Z</time></trkpt><trkpt lat="51.9511106238" lon="-1.9680746365"><ele>39.52</ele><time>2023-07-12T11:15:45Z</time></trkpt><trkpt lat="51.9512471650" lon="-1.9681026321"><ele>40.36</ele><time>2023-07-12T11:16:00Z</time></trkpt><trkpt lat="51.9513638411" lon="-1.9681742974"><ele>40.23</ele><time>2023-07-12T11:16:14Z</time></trkpt><trkpt lat="51.9514059182" lon="-1.9681986049"><ele>40.01</ele><time>2023-07-12T11:16:19Z</time></trkpt><trkpt lat="51.9514431339" lon="-1.9682211522"><ele>39.87</ele><time>2023-07-12T11:16:23Z</time></trkpt><trkpt lat="51.9514895696" lon="-1.9682859443"><ele>39.87</ele><time>2023-07-12T11:16:32Z</time></trkpt><trkpt lat="51.9515421242" lon="-1.9683836773"><ele>39.81</ele><time>2023-07-12T11:16:44Z</time></trkpt><trkpt lat="51.9516213331" lon="-1.9685976673"><ele>41.18</ele><time>2023-07-12T11:17:01Z</time></trkpt><trkpt lat="51.9517330639" lon="-1.9687210489"><ele>42.32</ele><time>2023-07-12T11:17:20Z</time></trkpt><trkpt lat="51.9518105127" lon="-1.9687591027"><ele>43.08</ele><time>2023-07-12T11:17:32Z</time></trkpt><trkpt lat="51.9518510811" lon="-1.9688450173"><ele>43.57</ele><time>2023-07-12T11:17:46Z</time></trkpt><trkpt lat="51.9518541824" lon="-1.9689388108"><ele>43.53</ele><time>2023-07-12T11:18:08Z</time></trkpt><trkpt lat="51.9519462157" lon="-1.9689818937"><ele>44.73</ele><time>2023-07-12T11:18:22Z</time></trkpt><trkpt lat="51.9520830084" lon="-1.9690529723"><ele>46.75</ele><time>2023-07-12T11:18:38Z</time></trkpt><trkpt lat="51.9522041269" lon="-1.9691325165"><ele>48.37</ele><time>2023-07-12T11:18:53Z</time></trkpt><trkpt lat="51.9522260875" lon="-1.9691513758"><ele>48.46</ele><time>2023-07-12T11:18:55Z</time></trkpt><trkpt lat="51.9522608723" lon="-1.9692094624"><ele>49.27</ele><time>2023-07-12T11:19:01Z</time></trkpt><trkpt lat="51.9522345532" lon="-1.9694395456"><ele>50.19</ele><time>2023-07-12T11:19:14Z</time></trkpt><trkpt lat="51.9522524066" lon="-1.9696430583"><ele>50.27</ele><time>2023-07-12T11:19:27Z</time></trkpt><trkpt lat="51.9522363972" lon="-1.9697454851"><ele>50.50</ele><time>2023-07-12T11:19:34Z</time></trkpt><trkpt lat="51.9522271771" lon="-1.9698347524"><ele>50.99</ele><time>2023-07-12T11:19:47Z</time></trkpt><trkpt lat="51.9522090722" lon="-1.9699009694"><ele>50.88</ele><time>2023-07-12T11:19:52Z</time></trkpt><trkpt lat="51.9521963317" lon="-1.9700760674"><ele>50.94</ele><time>2023-07-12T11:20:03Z</time></trkpt><trkpt lat="51.9521886203" lon="-1.9701428711"><ele>51.11</ele><time>2023-07-12T11:20:08Z</time></trkpt><trkpt lat="51.9521839265" lon="-1.9702317193"><ele>51.47</ele><time>2023-07-12T11:20:14Z</time></trkpt><trkpt lat="51.9521710183" lon="-1.9703333080"><ele>51.59</ele><time>2023-07-12T11:20:20Z</time></trkpt><trkpt lat="51.9521675818" lon="-1.9704433624"><ele>51.82</ele><time>2023-07-12T11:20:34Z</time></trkpt><trkpt lat="51.9521209784" lon="-1.9706261717"><ele>51.72</ele><time>2023-07-12T11:20:48Z</time></trkpt><trkpt lat="51.9520651549" lon="-1.9708663132"><ele>52.27</ele><time>2023-07-12T11:21:04Z</time></trkpt><trkpt lat="51.9520588685" lon="-1.9710078835"><ele>52.51</ele><time>2023-07-12T11:21:17Z</time></trkpt><trkpt lat="51.9520089962" lon="-1.9710873440"><ele>52.69</ele><time>2023-07-12T11:21:22Z</time></trkpt><trkpt lat="51.9519620575" lon="-1.9712722488"><ele>52.39</ele><time>2023-07-12T11:21:35Z</time></trkpt><trkpt lat="51.9519317988" lon="-1.9713381305"><ele>52.43</ele><time>2023-07-12T11:21:40Z</time></trkpt><trkpt lat="51.9519184716" lon="-1.9713992346"><ele>52.51</ele><time>2023-07-12T11:21:43Z</time></trkpt><trkpt lat="51.9518607203" lon="-1.9715586584"><ele>52.86</ele><time>2023-07-12T11:21:57Z</time></trkpt><trkpt lat="51.9517939165" lon="-1.9716623425"><ele>53.32</ele><time>2023-07-12T11:22:11Z</time></trkpt><trkpt lat="51.9517546892" lon="-1.9717249554"><ele>53.53</ele><time>2023-07-12T11:22:27Z</time></trkpt><trkpt lat="51.9516917411" lon="-1.9718692079"><ele>53.21</ele><time>2023-07-12T11:22:41Z</time></trkpt><trkpt lat="51.9517876301" lon="-1.9719777536"><ele>53.43</ele><time>2023-07-12T11:22:53Z</time></trkpt><trkpt lat="51.9518265221" lon="-1.9719992951"><ele>53.49</ele><time>2023-07-12T11:22:58Z</time></trkpt><trkpt lat="51.9518970139" lon="-1.9720938429"><ele>53.38</ele><time>2023-07-12T11:23:08Z</time></trkpt><trkpt lat="51.9519290328" lon="-1.9722991996"><ele>53.87</ele><time>2023-07-12T11:23:21Z</time></trkpt><trkpt lat="51.9520328008" lon="-1.9724200666"><ele>54.05</ele><time>2023-07-12T11:23:36Z</time></trkpt><trkpt lat="51.9520276040" lon="-1.9723833539"><ele>54.66</ele><time>2023-07-12T11:23:52Z</time></trkpt><trkpt lat="51.9519680925" lon="-1.9722687732"><ele>55.44</ele><time>2023-07-12T11:24:07Z</time></trkpt><trkpt lat="51.9519693498" lon="-1.9722177275"><ele>55.20</ele><time>2023-07-12T11:24:28Z</time></trkpt><trkpt lat="51.9519804139" lon="-1.9722168893"><ele>54.90</ele><time>2023-07-12T11:24:51Z</time></trkpt><trkpt lat="51.9519694336" lon="-1.9721730519"><ele>54.90</ele><time>2023-07-12T11:25:13Z</time></trkpt><trkpt lat="51.9519777317" lon="-1.9721769076"><ele>54.90</ele><time>2023-07-12T11:25:37Z</time></trkpt><trkpt lat="51.9519790728" lon="-1.9721755665"><ele>54.90</ele><time>2023-07-12T11:25:41Z</time></trkpt></trkseg></trk></gpx>